createdAt,value
2023-05-22T00:00:07.559Z,9.40
2023-05-22T00:02:38.940Z,11.98
2023-05-22T00:05:10.200Z,11.90
2023-05-22T00:07:39.915Z,9.75
2023-05-22T00:10:09.081Z,12.63
2023-05-22T00:12:37.692Z,9.48
2023-05-22T00:15:07.241Z,9.95
2023-05-22T00:17:37.221Z,12.57
2023-05-22T00:20:08.987Z,11.93
2023-05-22T00:22:38.335Z,11.13
2023-05-22T00:25:08.081Z,10.82
2023-05-22T00:27:36.592Z,10.32
2023-05-22T00:30:06.340Z,10.18
2023-05-22T00:32:34.829Z,10.68
2023-05-22T00:35:04.959Z,12.27
2023-05-22T00:37:33.428Z,9.27
2023-05-22T00:40:01.894Z,10.00
2023-05-22T00:42:30.314Z,11.40
2023-05-22T00:44:58.849Z,11.45
2023-05-22T00:47:27.365Z,10.43
2023-05-22T00:49:56.082Z,9.85
2023-05-22T00:52:26.313Z,10.88
2023-05-22T00:54:55.238Z,13.10
2023-05-22T00:57:24.598Z,10.43
2023-05-22T00:59:53.370Z,12.38
2023-05-22T01:02:23.482Z,13.10
2023-05-22T01:04:53.851Z,12.80
2023-05-22T01:07:23.908Z,10.52
2023-05-22T01:09:53.920Z,10.70
2023-05-22T01:12:28.500Z,12.52
2023-05-22T01:15:05.030Z,9.75
2023-05-22T01:17:46.283Z,9.60
2023-05-22T01:20:24.413Z,12.35
2023-05-22T01:23:16.689Z,12.00
2023-05-22T01:26:04.948Z,10.77
2023-05-22T01:28:48.726Z,12.45
2023-05-22T01:31:20.348Z,10.88
2023-05-22T01:33:51.427Z,12.48
2023-05-22T01:36:23.453Z,10.82
2023-05-22T01:38:53.267Z,11.82
2023-05-22T01:41:22.434Z,12.57
2023-05-22T01:43:50.974Z,10.68
2023-05-22T01:46:20.859Z,10.82
2023-05-22T01:48:49.407Z,13.57
2023-05-22T01:51:24.876Z,10.60
2023-05-22T01:54:00.052Z,10.73
2023-05-22T01:56:38.144Z,12.45
2023-05-22T01:59:15.087Z,10.23
2023-05-22T02:01:46.179Z,10.48
2023-05-22T02:04:17.354Z,12.18
2023-05-22T02:06:46.048Z,11.00
2023-05-22T02:09:16.877Z,11.25
2023-05-22T02:11:45.650Z,10.07
2023-05-22T02:14:14.371Z,11.02
2023-05-22T02:16:47.872Z,11.93
2023-05-22T02:19:16.410Z,10.50
2023-05-22T02:21:44.889Z,9.88
2023-05-22T02:24:14.365Z,14.48
2023-05-22T02:26:43.180Z,10.90
2023-05-22T02:29:12.964Z,10.88
2023-05-22T02:31:41.528Z,11.90
2023-05-22T02:34:11.668Z,10.82
2023-05-22T02:36:40.127Z,11.48
2023-05-22T02:39:08.893Z,12.25
2023-05-22T02:41:37.369Z,13.80
2023-05-22T02:44:06.108Z,10.65
2023-05-22T02:46:34.637Z,9.82
2023-05-22T02:49:03.078Z,13.38
2023-05-22T02:51:33.014Z,11.32
2023-05-22T02:54:01.493Z,14.32
2023-05-22T02:56:29.966Z,14.25
2023-05-22T02:58:58.468Z,9.32
2023-05-22T03:01:30.430Z,12.98
2023-05-22T03:03:59.395Z,13.07
2023-05-22T03:06:28.100Z,11.15
2023-05-22T03:08:58.018Z,10.95
2023-05-22T03:11:26.716Z,11.23
2023-05-22T03:13:55.141Z,11.07
2023-05-22T03:16:23.794Z,10.52
2023-05-22T03:18:53.473Z,11.70
2023-05-22T03:21:21.928Z,10.05
2023-05-22T03:23:50.380Z,11.88
2023-05-22T03:26:20.182Z,10.65
2023-05-22T03:28:50.660Z,10.10
2023-05-22T03:31:19.142Z,11.98
2023-05-22T03:33:47.651Z,14.18
2023-05-22T03:36:17.361Z,11.45
2023-05-22T03:38:45.891Z,12.48
2023-05-22T03:41:14.449Z,11.07
2023-05-22T03:43:45.114Z,10.35
2023-05-22T03:46:13.839Z,10.00
2023-05-22T03:48:42.406Z,11.02
2023-05-22T03:51:10.955Z,12.30
2023-05-22T03:53:39.594Z,12.80
2023-05-22T03:56:08.578Z,13.30
2023-05-22T03:58:37.062Z,10.60
2023-05-22T04:01:10.010Z,11.75
2023-05-22T04:03:38.898Z,10.73
2023-05-22T04:06:07.810Z,12.70
2023-05-22T04:08:36.303Z,11.27
2023-05-22T04:11:05.417Z,10.65
2023-05-22T04:13:33.923Z,12.60
2023-05-22T04:16:04.286Z,13.30
2023-05-22T04:18:34.180Z,14.75
2023-05-22T04:21:02.919Z,13.30
2023-05-22T04:23:31.931Z,10.70
2023-05-22T04:26:02.404Z,10.50
2023-05-22T04:28:31.267Z,11.60
2023-05-22T04:30:59.720Z,10.25
2023-05-22T04:33:29.029Z,11.40
2023-05-22T04:35:58.872Z,14.57
2023-05-22T04:38:27.351Z,11.55
2023-05-22T04:40:55.784Z,12.93
2023-05-22T04:43:26.882Z,12.32
2023-05-22T04:45:56.458Z,10.90
2023-05-22T04:48:25.168Z,11.93
2023-05-22T04:50:54.312Z,14.23
2023-05-22T04:53:24.195Z,16.83
2023-05-22T04:55:52.673Z,12.13
2023-05-22T04:58:21.913Z,11.85
2023-05-22T05:00:52.522Z,13.75
2023-05-22T05:03:22.838Z,12.88
2023-05-22T05:05:51.471Z,12.93
2023-05-22T05:08:20.040Z,12.27
2023-05-22T05:10:49.885Z,10.00
2023-05-22T05:13:18.321Z,12.90
2023-05-22T05:15:46.888Z,13.73
2023-05-22T05:18:15.407Z,16.80
2023-05-22T05:20:44.063Z,11.73
2023-05-22T05:23:12.553Z,12.05
2023-05-22T05:25:40.987Z,14.70
2023-05-22T05:28:12.181Z,31.77
2023-05-22T05:30:41.686Z,11.40
2023-05-22T05:33:10.447Z,10.52
2023-05-22T05:35:41.425Z,12.73
2023-05-22T05:38:11.239Z,12.70
2023-05-22T05:40:40.071Z,12.27
2023-05-22T05:43:10.180Z,11.55
2023-05-22T05:45:38.618Z,15.85
2023-05-22T05:48:07.912Z,13.30
2023-05-22T05:50:36.939Z,13.10
2023-05-22T05:53:06.285Z,16.42
2023-05-22T05:55:34.852Z,20.02
2023-05-22T05:58:03.325Z,13.80
2023-05-22T06:00:33.203Z,13.73
2023-05-22T06:03:01.860Z,13.35
2023-05-22T06:05:30.494Z,13.98
2023-05-22T06:07:59.278Z,12.30
2023-05-22T06:10:27.704Z,12.35
2023-05-22T06:12:56.499Z,20.38
2023-05-22T06:15:24.969Z,11.65
2023-05-22T06:17:54.806Z,11.75
2023-05-22T06:20:25.088Z,13.48
2023-05-22T06:22:53.544Z,14.43
2023-05-22T06:25:23.795Z,19.30
2023-05-22T06:27:52.316Z,12.73
2023-05-22T06:30:31.863Z,13.10
2023-05-22T06:33:10.723Z,15.23
2023-05-22T06:35:39.404Z,28.92
2023-05-22T06:38:07.940Z,11.98
2023-05-22T06:40:36.564Z,14.73
2023-05-22T06:43:05.133Z,13.35
2023-05-22T06:45:33.674Z,13.07
2023-05-22T06:48:02.353Z,14.52
2023-05-22T06:50:32.902Z,12.30
2023-05-22T06:53:01.411Z,12.50
2023-05-22T06:55:29.855Z,14.73
2023-05-22T06:57:58.342Z,11.52
2023-05-22T07:00:26.923Z,15.20
2023-05-22T07:02:55.579Z,15.20
2023-05-22T07:05:24.116Z,19.40
2023-05-22T07:07:54.026Z,14.15
2023-05-22T07:10:22.663Z,15.15
2023-05-22T07:12:51.128Z,13.10
2023-05-22T07:15:19.574Z,14.75
2023-05-22T07:17:48.060Z,15.15
2023-05-22T07:20:16.892Z,14.20
2023-05-22T07:22:45.349Z,15.30
2023-05-22T07:25:15.210Z,15.77
2023-05-22T07:27:43.662Z,13.05
2023-05-22T07:30:13.093Z,16.75
2023-05-22T07:32:41.588Z,16.73
2023-05-22T07:35:11.866Z,13.93
2023-05-22T07:37:41.325Z,11.80
2023-05-22T07:40:11.216Z,12.48
2023-05-22T07:42:41.777Z,15.90
2023-05-22T07:45:11.552Z,12.27
2023-05-22T07:47:40.294Z,12.95
2023-05-22T07:50:10.232Z,13.68
2023-05-22T07:52:38.763Z,13.55
2023-05-22T07:55:08.767Z,14.15
2023-05-22T07:57:37.272Z,13.77
2023-05-22T08:00:13.923Z,12.38
2023-05-22T08:02:43.077Z,13.77
2023-05-22T08:05:12.548Z,12.65
2023-05-22T08:07:41.530Z,16.88
2023-05-22T08:10:16.834Z,12.77
2023-05-22T08:12:45.623Z,13.73
2023-05-22T08:15:15.652Z,13.10
2023-05-22T08:17:44.145Z,15.13
2023-05-22T08:20:13.737Z,14.65
2023-05-22T08:22:42.449Z,14.27
2023-05-22T08:25:11.117Z,14.55
2023-05-22T08:27:39.590Z,11.73
2023-05-22T08:30:09.594Z,11.38
2023-05-22T08:32:39.480Z,14.48
2023-05-22T08:35:08.907Z,18.77
2023-05-22T08:37:37.344Z,13.82
2023-05-22T08:40:08.617Z,11.43
2023-05-22T08:42:37.141Z,13.32
2023-05-22T08:45:07.108Z,13.27
2023-05-22T08:47:36.752Z,10.68
2023-05-22T08:50:09.300Z,13.93
2023-05-22T08:52:48.023Z,13.40
2023-05-22T08:55:19.425Z,16.02
2023-05-22T08:57:48.470Z,12.52
2023-05-22T09:00:18.253Z,11.90
2023-05-22T09:02:48.880Z,14.27
2023-05-22T09:05:18.825Z,14.85
2023-05-22T09:07:48.959Z,12.40
2023-05-22T09:10:17.513Z,11.38
2023-05-22T09:13:07.915Z,11.18
2023-05-22T09:15:37.615Z,12.45
2023-05-22T09:18:07.057Z,12.38
2023-05-22T09:20:40.117Z,11.48
2023-05-22T09:23:17.739Z,12.95
2023-05-22T09:25:47.005Z,11.88
2023-05-22T09:28:15.470Z,16.60
2023-05-22T09:30:44.158Z,11.73
2023-05-22T09:33:14.333Z,12.80
2023-05-22T09:35:45.816Z,13.80
2023-05-22T09:38:14.670Z,11.90
2023-05-22T09:40:43.404Z,10.95
2023-05-22T09:43:12.795Z,14.10
2023-05-22T09:45:41.995Z,11.85
2023-05-22T09:48:12.634Z,15.55
2023-05-22T09:50:41.949Z,11.30
2023-05-22T09:53:12.107Z,11.05
2023-05-22T09:55:41.174Z,12.32
2023-05-22T09:58:13.442Z,15.75
2023-05-22T10:00:43.006Z,12.18
2023-05-22T10:03:12.945Z,11.00
2023-05-22T10:05:47.224Z,13.02
2023-05-22T10:08:22.056Z,12.95
2023-05-22T10:10:52.903Z,14.63
2023-05-22T10:13:22.010Z,12.93
2023-05-22T10:15:51.560Z,12.52
2023-05-22T10:18:20.273Z,11.13
2023-05-22T10:20:49.392Z,12.07
2023-05-22T10:23:20.045Z,11.95
2023-05-22T10:25:48.592Z,12.77
2023-05-22T10:28:24.668Z,13.73
2023-05-22T10:31:01.372Z,11.65
2023-05-22T10:33:35.028Z,12.52
2023-05-22T10:36:06.604Z,11.75
2023-05-22T10:39:12.305Z,11.55
2023-05-22T10:41:41.605Z,14.20
2023-05-22T10:44:10.155Z,12.75
2023-05-22T10:46:38.641Z,17.85
2023-05-22T10:49:07.390Z,13.35
2023-05-22T10:51:36.458Z,12.63
2023-05-22T10:54:06.541Z,12.02
2023-05-22T10:56:36.287Z,11.48
2023-05-22T10:59:08.372Z,12.10
2023-05-22T11:01:38.562Z,11.80
2023-05-22T11:04:15.927Z,10.57
2023-05-22T11:06:46.396Z,14.18
2023-05-22T11:09:34.681Z,12.70
2023-05-22T11:12:31.239Z,13.98
2023-05-22T11:15:03.641Z,13.73
2023-05-22T11:17:33.780Z,8.90
2023-05-22T11:20:06.099Z,10.43
2023-05-22T11:22:36.720Z,10.23
2023-05-22T11:25:09.470Z,13.40
2023-05-22T11:27:39.239Z,12.43
2023-05-22T11:30:09.538Z,9.75
2023-05-22T11:32:38.865Z,10.73
2023-05-22T11:35:09.324Z,10.00
2023-05-22T11:37:41.749Z,8.93
2023-05-22T11:40:14.434Z,10.63
2023-05-22T11:42:42.975Z,10.20
2023-05-22T11:45:12.670Z,19.67
2023-05-22T11:47:41.698Z,13.63
2023-05-22T11:50:11.863Z,12.40
2023-05-22T11:52:42.951Z,15.18
2023-05-22T11:55:12.849Z,12.23
2023-05-22T11:57:41.341Z,12.15
2023-05-22T12:00:11.023Z,22.02
2023-05-22T12:02:39.960Z,9.52
2023-05-22T12:05:11.867Z,12.38
2023-05-22T12:07:40.619Z,11.48
2023-05-22T12:10:09.521Z,14.82
2023-05-22T12:12:39.935Z,10.07
2023-05-22T12:15:09.459Z,13.82
2023-05-22T12:17:38.760Z,10.38
2023-05-22T12:20:08.323Z,12.07
2023-05-22T12:22:43.026Z,12.05
2023-05-22T12:25:15.520Z,10.80
2023-05-22T12:27:46.456Z,10.02
2023-05-22T12:30:16.329Z,11.45
2023-05-22T12:32:49.093Z,12.35
2023-05-22T12:35:18.402Z,11.60
2023-05-22T12:37:50.812Z,12.88
2023-05-22T12:40:19.371Z,10.70
2023-05-22T12:42:49.665Z,10.32
2023-05-22T12:45:18.814Z,10.38
2023-05-22T12:47:47.420Z,12.38
2023-05-22T12:50:16.222Z,10.95
2023-05-22T12:52:45.085Z,9.88
2023-05-22T12:55:13.608Z,10.10
2023-05-22T12:57:42.205Z,13.00
2023-05-22T13:00:13.441Z,14.70
2023-05-22T13:02:42.575Z,19.90
2023-05-22T13:05:11.192Z,11.13
2023-05-22T13:07:39.861Z,12.65
2023-05-22T13:10:09.585Z,14.55
2023-05-22T13:12:38.116Z,12.15
2023-05-22T13:15:07.721Z,11.18
2023-05-22T13:17:37.560Z,10.50
2023-05-22T13:20:11.455Z,10.82
2023-05-22T13:22:40.270Z,16.10
2023-05-22T13:25:09.710Z,13.15
2023-05-22T13:27:38.293Z,14.40
2023-05-22T13:30:07.965Z,12.90
2023-05-22T13:32:37.920Z,10.48
2023-05-22T13:35:07.531Z,11.38
2023-05-22T13:37:36.035Z,19.40
2023-05-22T13:40:05.016Z,11.55
2023-05-22T13:42:33.644Z,13.52
2023-05-22T13:45:02.216Z,11.35
2023-05-22T13:47:31.135Z,9.82
2023-05-22T13:50:01.006Z,19.35
2023-05-22T13:52:29.567Z,12.20
2023-05-22T13:54:58.280Z,14.75
2023-05-22T13:57:26.820Z,12.93
2023-05-22T13:59:55.712Z,10.10
2023-05-22T14:02:24.649Z,13.13
2023-05-22T14:04:53.205Z,15.25
2023-05-22T14:07:23.732Z,11.40
2023-05-22T14:09:52.237Z,12.27
2023-05-22T14:12:20.793Z,12.23
2023-05-22T14:14:49.419Z,8.88
2023-05-22T14:17:18.005Z,14.38
2023-05-22T14:19:46.876Z,16.75
2023-05-22T14:22:15.469Z,12.75
2023-05-22T14:24:45.350Z,12.88
2023-05-22T14:27:13.869Z,9.00
2023-05-22T14:29:42.811Z,9.27
2023-05-22T14:32:11.470Z,12.63
2023-05-22T14:34:40.001Z,13.23
2023-05-22T14:37:11.654Z,11.00
2023-05-22T14:39:40.117Z,14.63
2023-05-22T14:42:10.190Z,12.65
2023-05-22T14:44:38.786Z,11.15
2023-05-22T14:47:07.438Z,10.32
2023-05-22T14:49:35.964Z,12.15
2023-05-22T14:52:04.558Z,15.23
2023-05-22T14:54:34.751Z,16.33
2023-05-22T14:57:03.523Z,10.32
2023-05-22T14:59:33.997Z,18.23
2023-05-22T15:02:02.527Z,12.00
2023-05-22T15:04:31.483Z,13.45
2023-05-22T15:07:00.034Z,12.57
2023-05-22T15:09:28.581Z,12.35
2023-05-22T15:11:57.048Z,14.18
2023-05-22T15:14:25.612Z,13.93
2023-05-22T15:16:55.554Z,11.20
2023-05-22T15:19:25.006Z,9.70
2023-05-22T15:21:54.639Z,9.40
2023-05-22T15:24:23.771Z,11.35
2023-05-22T15:26:52.202Z,10.35
2023-05-22T15:29:20.831Z,13.23
2023-05-22T15:31:49.425Z,10.40
2023-05-22T15:34:19.371Z,13.13
2023-05-22T15:36:47.987Z,11.07
2023-05-22T15:39:16.810Z,14.05
2023-05-22T15:41:54.612Z,11.43
2023-05-22T15:44:31.243Z,9.45
2023-05-22T15:46:59.804Z,10.10
2023-05-22T15:49:31.357Z,12.27
2023-05-22T15:52:00.311Z,12.95
2023-05-22T15:54:28.935Z,11.32
2023-05-22T15:56:57.476Z,18.25
2023-05-22T15:59:25.971Z,10.02
2023-05-22T16:01:54.465Z,10.88
2023-05-22T16:04:23.509Z,10.55
2023-05-22T16:06:53.756Z,14.85
2023-05-22T16:09:22.532Z,13.23
2023-05-22T16:11:51.375Z,12.23
2023-05-22T16:14:20.080Z,12.02
2023-05-22T16:16:48.789Z,13.10
2023-05-22T16:19:17.515Z,10.65
2023-05-22T16:21:46.408Z,12.95
2023-05-22T16:24:20.932Z,10.80
2023-05-22T16:26:49.551Z,11.50
2023-05-22T16:29:20.455Z,13.73
2023-05-22T16:31:49.402Z,12.32
2023-05-22T16:34:17.957Z,12.45
2023-05-22T16:36:46.578Z,10.98
2023-05-22T16:39:15.763Z,13.52
2023-05-22T16:41:45.692Z,14.68
2023-05-22T16:44:14.270Z,18.25
2023-05-22T16:46:42.856Z,13.23
2023-05-22T16:49:11.296Z,10.55
2023-05-22T16:51:39.763Z,12.27
2023-05-22T16:54:08.373Z,11.23
2023-05-22T16:56:37.552Z,16.92
2023-05-22T16:59:07.417Z,12.27
2023-05-22T17:01:36.091Z,13.68
2023-05-22T17:04:04.776Z,13.05
2023-05-22T17:06:33.388Z,11.25
2023-05-22T17:09:01.891Z,12.15
2023-05-22T17:11:30.651Z,12.23
2023-05-22T17:13:59.106Z,10.68
2023-05-22T17:16:28.942Z,12.05
2023-05-22T17:18:57.890Z,13.52
2023-05-22T17:21:27.560Z,20.40
2023-05-22T17:23:56.339Z,11.27
2023-05-22T17:26:24.976Z,14.68
2023-05-22T17:28:53.673Z,12.45
2023-05-22T17:31:22.840Z,15.25
2023-05-22T17:33:52.893Z,13.85
2023-05-22T17:36:21.500Z,38.90
2023-05-22T17:38:50.081Z,38.17
2023-05-22T17:41:18.661Z,78.43
2023-05-22T17:43:47.223Z,97.85
2023-05-22T17:46:15.711Z,308.85
2023-05-22T17:48:44.262Z,240.85
2023-05-22T17:51:14.221Z,95.75
2023-05-22T17:53:43.497Z,131.15
2023-05-22T17:56:12.084Z,130.73
2023-05-22T17:58:40.708Z,98.70
2023-05-22T18:01:09.197Z,61.42
2023-05-22T18:03:38.064Z,63.50
2023-05-22T18:06:07.109Z,32.88
2023-05-22T18:08:37.099Z,59.08
2023-05-22T18:11:06.241Z,66.55
2023-05-22T18:13:34.937Z,57.47
2023-05-22T18:16:04.513Z,43.17
2023-05-22T18:18:33.100Z,43.30
2023-05-22T18:21:01.650Z,36.80
2023-05-22T18:23:30.128Z,44.65
2023-05-22T18:26:02.145Z,22.42
2023-05-22T18:28:30.623Z,33.33
2023-05-22T18:30:59.073Z,28.60
2023-05-22T18:33:27.749Z,36.92
2023-05-22T18:35:57.757Z,33.63
2023-05-22T18:38:27.256Z,29.92
2023-05-22T18:40:56.495Z,22.98
2023-05-22T18:43:28.248Z,35.92
2023-05-22T18:45:57.642Z,15.00
2023-05-22T18:48:27.251Z,17.27
2023-05-22T18:50:57.450Z,15.65
2023-05-22T18:53:27.324Z,17.42
2023-05-22T18:55:55.876Z,22.40
2023-05-22T18:58:24.433Z,20.70
2023-05-22T19:00:55.659Z,14.98
2023-05-22T19:03:25.131Z,16.05
2023-05-22T19:05:53.832Z,20.25
2023-05-22T19:08:24.897Z,15.57
2023-05-22T19:10:53.889Z,14.55
2023-05-22T19:13:22.370Z,13.40
2023-05-22T19:15:51.066Z,16.35
2023-05-22T19:18:20.962Z,14.10
2023-05-22T19:20:49.492Z,14.82
2023-05-22T19:23:17.997Z,17.45
2023-05-22T19:25:46.698Z,14.35
2023-05-22T19:28:15.670Z,13.43
2023-05-22T19:30:44.561Z,15.82
2023-05-22T19:33:14.780Z,11.68
2023-05-22T19:35:44.781Z,16.55
2023-05-22T19:38:13.506Z,12.20
2023-05-22T19:40:42.151Z,14.45
2023-05-22T19:43:10.973Z,13.50
2023-05-22T19:45:39.508Z,12.27
2023-05-22T19:48:08.116Z,12.73
2023-05-22T19:50:36.746Z,15.23
2023-05-22T19:53:06.791Z,18.73
2023-05-22T19:55:35.286Z,11.15
2023-05-22T19:58:04.075Z,13.85
2023-05-22T20:00:33.466Z,13.73
2023-05-22T20:03:02.311Z,14.88
2023-05-22T20:05:30.966Z,14.18
2023-05-22T20:07:59.502Z,15.85
2023-05-22T20:10:30.101Z,11.93
2023-05-22T20:12:59.826Z,12.60
2023-05-22T20:15:28.348Z,13.75
2023-05-22T20:17:57.875Z,12.25
2023-05-22T20:20:26.483Z,13.05
2023-05-22T20:22:55.096Z,13.25
2023-05-22T20:25:23.773Z,15.30
2023-05-22T20:27:54.247Z,14.40
2023-05-22T20:30:22.749Z,12.70
2023-05-22T20:32:52.059Z,20.90
2023-05-22T20:35:22.311Z,15.13
2023-05-22T20:37:53.437Z,12.23
2023-05-22T20:40:22.379Z,14.63
2023-05-22T20:42:53.179Z,12.60
2023-05-22T20:45:23.082Z,17.92
2023-05-22T20:47:52.113Z,16.02
2023-05-22T20:50:21.027Z,13.05
2023-05-22T20:52:49.542Z,12.88
2023-05-22T20:55:18.004Z,12.75
2023-05-22T20:57:46.451Z,15.98
2023-05-22T21:00:15.396Z,12.20
2023-05-22T21:02:45.482Z,15.18
2023-05-22T21:05:13.926Z,12.65
2023-05-22T21:07:42.442Z,18.27
2023-05-22T21:10:12.050Z,28.85
2023-05-22T21:12:40.502Z,14.68
2023-05-22T21:15:10.201Z,12.88
2023-05-22T21:17:39.162Z,23.80
2023-05-22T21:20:09.801Z,16.17
2023-05-22T21:22:38.468Z,12.70
2023-05-22T21:25:07.977Z,16.83
2023-05-22T21:27:36.479Z,19.95
2023-05-22T21:30:05.377Z,13.60
2023-05-22T21:32:33.866Z,12.55
2023-05-22T21:35:02.311Z,10.68
2023-05-22T21:37:32.146Z,13.48
2023-05-22T21:40:01.556Z,12.18
2023-05-22T21:42:41.968Z,14.50
2023-05-22T21:45:15.056Z,14.07
2023-05-22T21:47:43.592Z,13.93
2023-05-22T21:50:12.679Z,16.73
2023-05-22T21:52:44.194Z,12.75
2023-05-22T21:55:12.725Z,10.95
2023-05-22T21:57:41.317Z,11.70
2023-05-22T22:00:10.822Z,15.00
2023-05-22T22:02:41.863Z,13.07
2023-05-22T22:05:11.604Z,16.73
2023-05-22T22:07:39.960Z,45.35
2023-05-22T22:10:10.452Z,14.25
2023-05-22T22:12:38.789Z,13.98
2023-05-22T22:15:08.299Z,12.45
2023-05-22T22:17:37.252Z,16.23
2023-05-22T22:20:07.266Z,11.50
2023-05-22T22:22:35.808Z,15.25
2023-05-22T22:25:04.470Z,13.80
2023-05-22T22:27:34.392Z,12.63
2023-05-22T22:30:02.810Z,14.43
2023-05-22T22:32:31.594Z,14.75
2023-05-22T22:35:00.119Z,14.90
2023-05-22T22:37:28.575Z,12.75
2023-05-22T22:39:57.037Z,13.98
2023-05-22T22:42:26.636Z,10.55
2023-05-22T22:44:56.471Z,13.15
2023-05-22T22:47:25.125Z,12.27
2023-05-22T22:49:53.678Z,12.25
2023-05-22T22:52:22.069Z,11.07
2023-05-22T22:54:50.551Z,11.98
2023-05-22T22:57:19.025Z,14.05
2023-05-22T22:59:47.451Z,12.00
2023-05-22T23:02:17.191Z,37.08
2023-05-22T23:04:45.686Z,11.73
2023-05-22T23:07:14.089Z,14.65
2023-05-22T23:09:42.514Z,11.23
2023-05-22T23:12:10.914Z,10.38
2023-05-22T23:14:39.273Z,12.93
2023-05-22T23:17:07.662Z,12.02
2023-05-22T23:19:37.458Z,14.48
2023-05-22T23:22:06.019Z,13.00
2023-05-22T23:24:34.519Z,10.98
2023-05-22T23:27:02.977Z,12.23
2023-05-22T23:29:31.436Z,11.73
2023-05-22T23:31:59.976Z,13.00
2023-05-22T23:34:28.554Z,11.82
2023-05-22T23:36:58.346Z,13.10
2023-05-22T23:43:14.753Z,10.90
2023-05-22T23:45:43.209Z,14.45
2023-05-22T23:48:11.567Z,14.35
2023-05-22T23:50:39.900Z,12.35
2023-05-22T23:53:09.655Z,14.27
2023-05-22T23:55:38.134Z,11.85
2023-05-22T23:58:06.728Z,12.93
